sensor_id;sensor_type;location;lat;lon;timestamp;P1;durP1;ratioP1;P2;durP2;ratioP2
73850;SDS011;62190;51.548;5.688;2024-03-08T00:01:41;23.67;;;9.30;;
73850;SDS011;62190;51.548;5.688;2024-03-08T00:04:10;26.60;;;10.75;;
73850;SDS011;62190;51.548;5.688;2024-03-08T00:06:37;23.67;;;9.93;;
73850;SDS011;62190;51.548;5.688;2024-03-08T00:09:05;28.50;;;10.30;;
73850;SDS011;62190;51.548;5.688;2024-03-08T00:11:37;20.65;;;10.05;;
73850;SDS011;62190;51.548;5.688;2024-03-08T00:14:04;24.30;;;10.58;;
73850;SDS011;62190;51.548;5.688;2024-03-08T00:16:37;21.85;;;9.13;;
73850;SDS011;62190;51.548;5.688;2024-03-08T00:19:00;22.00;;;10.55;;
73850;SDS011;62190;51.548;5.688;2024-03-08T00:21:27;24.63;;;10.40;;
73850;SDS011;62190;51.548;5.688;2024-03-08T00:23:56;23.32;;;11.25;;
73850;SDS011;62190;51.548;5.688;2024-03-08T00:26:25;24.67;;;11.75;;
73850;SDS011;62190;51.548;5.688;2024-03-08T00:28:51;25.12;;;9.00;;
73850;SDS011;62190;51.548;5.688;2024-03-08T00:31:19;25.10;;;11.53;;
73850;SDS011;62190;51.548;5.688;2024-03-08T00:33:45;26.27;;;11.00;;
73850;SDS011;62190;51.548;5.688;2024-03-08T00:36:12;29.35;;;11.08;;
73850;SDS011;62190;51.548;5.688;2024-03-08T00:38:38;27.60;;;11.38;;
73850;SDS011;62190;51.548;5.688;2024-03-08T00:41:08;25.30;;;10.70;;
73850;SDS011;62190;51.548;5.688;2024-03-08T00:43:34;26.82;;;11.83;;
73850;SDS011;62190;51.548;5.688;2024-03-08T00:46:01;27.22;;;10.38;;
73850;SDS011;62190;51.548;5.688;2024-03-08T00:48:27;26.48;;;11.10;;
73850;SDS011;62190;51.548;5.688;2024-03-08T00:50:54;21.73;;;11.28;;
73850;SDS011;62190;51.548;5.688;2024-03-08T00:53:20;23.77;;;9.88;;
73850;SDS011;62190;51.548;5.688;2024-03-08T00:55:54;21.35;;;10.03;;
73850;SDS011;62190;51.548;5.688;2024-03-08T00:58:18;19.42;;;10.15;;
73850;SDS011;62190;51.548;5.688;2024-03-08T01:00:48;25.40;;;10.60;;
73850;SDS011;62190;51.548;5.688;2024-03-08T01:03:13;27.58;;;10.95;;
73850;SDS011;62190;51.548;5.688;2024-03-08T01:05:39;24.67;;;11.22;;
73850;SDS011;62190;51.548;5.688;2024-03-08T01:08:06;24.12;;;10.90;;
73850;SDS011;62190;51.548;5.688;2024-03-08T01:10:33;24.67;;;9.98;;
73850;SDS011;62190;51.548;5.688;2024-03-08T01:12:59;25.95;;;10.70;;
73850;SDS011;62190;51.548;5.688;2024-03-08T01:15:26;21.42;;;10.32;;
73850;SDS011;62190;51.548;5.688;2024-03-08T01:18:06;15.83;;;9.35;;
73850;SDS011;62190;51.548;5.688;2024-03-08T01:20:22;17.87;;;9.10;;
73850;SDS011;62190;51.548;5.688;2024-03-08T01:22:51;20.90;;;10.08;;
73850;SDS011;62190;51.548;5.688;2024-03-08T01:25:17;23.27;;;10.08;;
73850;SDS011;62190;51.548;5.688;2024-03-08T01:27:46;21.62;;;9.88;;
73850;SDS011;62190;51.548;5.688;2024-03-08T01:30:11;21.40;;;9.75;;
73850;SDS011;62190;51.548;5.688;2024-03-08T01:32:38;24.37;;;10.78;;
73850;SDS011;62190;51.548;5.688;2024-03-08T01:35:04;22.48;;;10.45;;
73850;SDS011;62190;51.548;5.688;2024-03-08T01:37:31;23.12;;;10.38;;
73850;SDS011;62190;51.548;5.688;2024-03-08T01:40:05;18.48;;;10.03;;
73850;SDS011;62190;51.548;5.688;2024-03-08T01:42:33;23.40;;;10.18;;
73850;SDS011;62190;51.548;5.688;2024-03-08T01:45:02;19.27;;;10.78;;
73850;SDS011;62190;51.548;5.688;2024-03-08T01:47:32;23.90;;;10.48;;
73850;SDS011;62190;51.548;5.688;2024-03-08T01:49:58;22.80;;;9.40;;
73850;SDS011;62190;51.548;5.688;2024-03-08T01:52:27;23.55;;;10.20;;
73850;SDS011;62190;51.548;5.688;2024-03-08T01:54:57;24.05;;;10.35;;
73850;SDS011;62190;51.548;5.688;2024-03-08T01:57:26;24.25;;;10.32;;
73850;SDS011;62190;51.548;5.688;2024-03-08T01:59:53;20.80;;;9.88;;
73850;SDS011;62190;51.548;5.688;2024-03-08T02:02:22;19.60;;;9.80;;
73850;SDS011;62190;51.548;5.688;2024-03-08T02:04:48;23.15;;;9.75;;
73850;SDS011;62190;51.548;5.688;2024-03-08T02:07:16;19.10;;;10.05;;
73850;SDS011;62190;51.548;5.688;2024-03-08T02:09:43;19.82;;;8.75;;
73850;SDS011;62190;51.548;5.688;2024-03-08T02:12:11;25.17;;;11.75;;
73850;SDS011;62190;51.548;5.688;2024-03-08T02:14:37;23.00;;;10.65;;
73850;SDS011;62190;51.548;5.688;2024-03-08T02:17:06;20.00;;;10.15;;
73850;SDS011;62190;51.548;5.688;2024-03-08T02:19:33;26.02;;;11.57;;
73850;SDS011;62190;51.548;5.688;2024-03-08T02:22:01;22.62;;;11.40;;
73850;SDS011;62190;51.548;5.688;2024-03-08T02:24:29;19.60;;;10.68;;
73850;SDS011;62190;51.548;5.688;2024-03-08T02:26:56;24.50;;;11.12;;
73850;SDS011;62190;51.548;5.688;2024-03-08T02:29:22;19.80;;;9.88;;
73850;SDS011;62190;51.548;5.688;2024-03-08T02:31:51;19.90;;;10.82;;
73850;SDS011;62190;51.548;5.688;2024-03-08T02:34:18;21.82;;;10.95;;
73850;SDS011;62190;51.548;5.688;2024-03-08T02:36:47;24.98;;;11.03;;
73850;SDS011;62190;51.548;5.688;2024-03-08T02:39:13;24.00;;;11.18;;
73850;SDS011;62190;51.548;5.688;2024-03-08T02:41:44;19.30;;;10.85;;
73850;SDS011;62190;51.548;5.688;2024-03-08T02:44:11;25.60;;;10.53;;
73850;SDS011;62190;51.548;5.688;2024-03-08T02:46:38;21.68;;;10.85;;
73850;SDS011;62190;51.548;5.688;2024-03-08T02:49:04;23.75;;;11.83;;
73850;SDS011;62190;51.548;5.688;2024-03-08T02:51:32;27.37;;;12.07;;
73850;SDS011;62190;51.548;5.688;2024-03-08T02:54:00;24.05;;;12.30;;
73850;SDS011;62190;51.548;5.688;2024-03-08T02:56:27;25.68;;;11.20;;
73850;SDS011;62190;51.548;5.688;2024-03-08T02:58:53;27.27;;;11.93;;
73850;SDS011;62190;51.548;5.688;2024-03-08T03:01:20;23.95;;;11.08;;
73850;SDS011;62190;51.548;5.688;2024-03-08T03:03:47;33.85;;;13.22;;
73850;SDS011;62190;51.548;5.688;2024-03-08T03:06:14;22.80;;;11.30;;
73850;SDS011;62190;51.548;5.688;2024-03-08T03:08:42;29.07;;;11.38;;
73850;SDS011;62190;51.548;5.688;2024-03-08T03:11:10;26.65;;;12.07;;
73850;SDS011;62190;51.548;5.688;2024-03-08T03:13:38;28.12;;;12.82;;
73850;SDS011;62190;51.548;5.688;2024-03-08T03:16:04;23.45;;;11.25;;
73850;SDS011;62190;51.548;5.688;2024-03-08T03:18:38;25.55;;;12.25;;
73850;SDS011;62190;51.548;5.688;2024-03-08T03:21:02;23.92;;;12.47;;
73850;SDS011;62190;51.548;5.688;2024-03-08T03:23:30;29.70;;;11.55;;
73850;SDS011;62190;51.548;5.688;2024-03-08T03:25:58;28.57;;;12.47;;
73850;SDS011;62190;51.548;5.688;2024-03-08T03:28:31;29.52;;;13.15;;
73850;SDS011;62190;51.548;5.688;2024-03-08T03:30:58;26.40;;;12.37;;
73850;SDS011;62190;51.548;5.688;2024-03-08T03:33:25;24.87;;;10.82;;
73850;SDS011;62190;51.548;5.688;2024-03-08T03:35:51;25.20;;;11.48;;
73850;SDS011;62190;51.548;5.688;2024-03-08T03:38:18;24.85;;;12.20;;
73850;SDS011;62190;51.548;5.688;2024-03-08T03:40:46;21.52;;;11.93;;
73850;SDS011;62190;51.548;5.688;2024-03-08T03:43:14;23.77;;;11.20;;
73850;SDS011;62190;51.548;5.688;2024-03-08T03:45:40;23.32;;;11.73;;
73850;SDS011;62190;51.548;5.688;2024-03-08T03:48:07;29.98;;;11.93;;
73850;SDS011;62190;51.548;5.688;2024-03-08T03:50:35;24.07;;;12.15;;
73850;SDS011;62190;51.548;5.688;2024-03-08T03:53:02;22.93;;;11.08;;
73850;SDS011;62190;51.548;5.688;2024-03-08T03:55:28;25.12;;;11.30;;
73850;SDS011;62190;51.548;5.688;2024-03-08T03:57:55;28.52;;;12.65;;
73850;SDS011;62190;51.548;5.688;2024-03-08T04:00:21;28.05;;;12.33;;
73850;SDS011;62190;51.548;5.688;2024-03-08T04:02:48;30.20;;;14.58;;
73850;SDS011;62190;51.548;5.688;2024-03-08T04:05:16;26.00;;;11.85;;
73850;SDS011;62190;51.548;5.688;2024-03-08T04:07:42;23.83;;;11.33;;
73850;SDS011;62190;51.548;5.688;2024-03-08T04:10:10;25.60;;;11.43;;
73850;SDS011;62190;51.548;5.688;2024-03-08T04:12:39;29.42;;;13.18;;
73850;SDS011;62190;51.548;5.688;2024-03-08T04:15:05;34.38;;;12.35;;
73850;SDS011;62190;51.548;5.688;2024-03-08T04:17:36;28.32;;;12.98;;
73850;SDS011;62190;51.548;5.688;2024-03-08T04:20:05;29.98;;;14.33;;
73850;SDS011;62190;51.548;5.688;2024-03-08T04:22:34;26.02;;;12.63;;
73850;SDS011;62190;51.548;5.688;2024-03-08T04:25:01;27.85;;;12.80;;
73850;SDS011;62190;51.548;5.688;2024-03-08T04:27:27;24.82;;;12.60;;
73850;SDS011;62190;51.548;5.688;2024-03-08T04:29:54;29.75;;;11.78;;
73850;SDS011;62190;51.548;5.688;2024-03-08T04:32:20;33.88;;;13.50;;
73850;SDS011;62190;51.548;5.688;2024-03-08T04:34:47;27.85;;;12.70;;
73850;SDS011;62190;51.548;5.688;2024-03-08T04:37:14;29.60;;;13.62;;
73850;SDS011;62190;51.548;5.688;2024-03-08T04:39:42;27.58;;;12.40;;
73850;SDS011;62190;51.548;5.688;2024-03-08T04:42:09;28.07;;;12.58;;
73850;SDS011;62190;51.548;5.688;2024-03-08T04:44:36;25.97;;;12.73;;
73850;SDS011;62190;51.548;5.688;2024-03-08T04:47:12;31.00;;;13.35;;
73850;SDS011;62190;51.548;5.688;2024-03-08T04:49:38;31.12;;;14.28;;
73850;SDS011;62190;51.548;5.688;2024-03-08T04:52:05;29.67;;;13.25;;
73850;SDS011;62190;51.548;5.688;2024-03-08T04:54:32;27.93;;;12.93;;
73850;SDS011;62190;51.548;5.688;2024-03-08T04:56:58;33.50;;;13.95;;
73850;SDS011;62190;51.548;5.688;2024-03-08T04:59:26;28.52;;;13.08;;
73850;SDS011;62190;51.548;5.688;2024-03-08T05:01:52;28.50;;;12.88;;
73850;SDS011;62190;51.548;5.688;2024-03-08T05:04:19;28.92;;;12.35;;
73850;SDS011;62190;51.548;5.688;2024-03-08T05:06:46;33.70;;;14.50;;
73850;SDS011;62190;51.548;5.688;2024-03-08T05:09:12;31.42;;;15.08;;
73850;SDS011;62190;51.548;5.688;2024-03-08T05:11:43;30.00;;;13.50;;
73850;SDS011;62190;51.548;5.688;2024-03-08T05:16:46;34.83;;;13.78;;
73850;SDS011;62190;51.548;5.688;2024-03-08T05:19:14;32.88;;;13.88;;
73850;SDS011;62190;51.548;5.688;2024-03-08T05:21:43;28.45;;;13.15;;
73850;SDS011;62190;51.548;5.688;2024-03-08T05:24:10;29.75;;;14.45;;
73850;SDS011;62190;51.548;5.688;2024-03-08T05:26:36;34.55;;;14.10;;
73850;SDS011;62190;51.548;5.688;2024-03-08T05:29:08;24.43;;;12.90;;
73850;SDS011;62190;51.548;5.688;2024-03-08T05:31:53;29.35;;;13.25;;
73850;SDS011;62190;51.548;5.688;2024-03-08T05:34:05;25.00;;;12.98;;
73850;SDS011;62190;51.548;5.688;2024-03-08T05:36:33;29.10;;;13.43;;
73850;SDS011;62190;51.548;5.688;2024-03-08T05:39:01;28.38;;;13.30;;
73850;SDS011;62190;51.548;5.688;2024-03-08T05:41:28;25.88;;;12.65;;
73850;SDS011;62190;51.548;5.688;2024-03-08T05:43:54;30.62;;;14.95;;
73850;SDS011;62190;51.548;5.688;2024-03-08T05:46:20;30.30;;;13.18;;
73850;SDS011;62190;51.548;5.688;2024-03-08T05:48:47;30.50;;;14.30;;
73850;SDS011;62190;51.548;5.688;2024-03-08T05:51:14;28.62;;;13.22;;
73850;SDS011;62190;51.548;5.688;2024-03-08T05:53:40;34.55;;;13.68;;
73850;SDS011;62190;51.548;5.688;2024-03-08T05:56:07;29.50;;;13.53;;
73850;SDS011;62190;51.548;5.688;2024-03-08T05:58:34;35.08;;;13.58;;
73850;SDS011;62190;51.548;5.688;2024-03-08T06:01:01;30.05;;;13.22;;
73850;SDS011;62190;51.548;5.688;2024-03-08T06:03:27;24.05;;;10.78;;
73850;SDS011;62190;51.548;5.688;2024-03-08T06:05:55;31.87;;;14.05;;
73850;SDS011;62190;51.548;5.688;2024-03-08T06:08:22;29.77;;;13.10;;
73850;SDS011;62190;51.548;5.688;2024-03-08T06:10:48;28.32;;;13.83;;
73850;SDS011;62190;51.548;5.688;2024-03-08T06:13:19;32.58;;;13.15;;
73850;SDS011;62190;51.548;5.688;2024-03-08T06:15:47;26.00;;;13.25;;
73850;SDS011;62190;51.548;5.688;2024-03-08T06:18:14;30.88;;;13.43;;
73850;SDS011;62190;51.548;5.688;2024-03-08T06:20:42;34.15;;;13.88;;
73850;SDS011;62190;51.548;5.688;2024-03-08T06:23:09;29.48;;;13.22;;
73850;SDS011;62190;51.548;5.688;2024-03-08T06:25:35;29.32;;;13.18;;
73850;SDS011;62190;51.548;5.688;2024-03-08T06:28:02;26.20;;;11.68;;
73850;SDS011;62190;51.548;5.688;2024-03-08T06:30:28;34.50;;;15.15;;
73850;SDS011;62190;51.548;5.688;2024-03-08T06:32:55;31.30;;;14.40;;
73850;SDS011;62190;51.548;5.688;2024-03-08T06:35:21;28.95;;;12.47;;
73850;SDS011;62190;51.548;5.688;2024-03-08T06:37:50;29.00;;;13.15;;
73850;SDS011;62190;51.548;5.688;2024-03-08T06:40:16;26.40;;;13.68;;
73850;SDS011;62190;51.548;5.688;2024-03-08T06:42:42;28.95;;;12.70;;
73850;SDS011;62190;51.548;5.688;2024-03-08T06:45:08;32.40;;;13.48;;
73850;SDS011;62190;51.548;5.688;2024-03-08T06:47:38;27.40;;;13.43;;
73850;SDS011;62190;51.548;5.688;2024-03-08T06:50:07;28.77;;;12.88;;
73850;SDS011;62190;51.548;5.688;2024-03-08T06:52:34;32.20;;;14.15;;
73850;SDS011;62190;51.548;5.688;2024-03-08T06:55:01;28.90;;;12.95;;
73850;SDS011;62190;51.548;5.688;2024-03-08T06:57:28;32.28;;;14.05;;
73850;SDS011;62190;51.548;5.688;2024-03-08T06:59:55;32.63;;;14.28;;
73850;SDS011;62190;51.548;5.688;2024-03-08T07:02:22;26.25;;;12.75;;
73850;SDS011;62190;51.548;5.688;2024-03-08T07:04:52;38.78;;;14.13;;
73850;SDS011;62190;51.548;5.688;2024-03-08T07:07:18;26.70;;;12.28;;
73850;SDS011;62190;51.548;5.688;2024-03-08T07:09:46;26.02;;;13.25;;
73850;SDS011;62190;51.548;5.688;2024-03-08T07:12:14;25.17;;;13.98;;
73850;SDS011;62190;51.548;5.688;2024-03-08T07:14:41;30.55;;;12.70;;
73850;SDS011;62190;51.548;5.688;2024-03-08T07:17:09;27.45;;;14.13;;
73850;SDS011;62190;51.548;5.688;2024-03-08T07:19:35;28.47;;;13.20;;
73850;SDS011;62190;51.548;5.688;2024-03-08T07:22:03;30.70;;;14.28;;
73850;SDS011;62190;51.548;5.688;2024-03-08T07:24:32;32.25;;;12.78;;
73850;SDS011;62190;51.548;5.688;2024-03-08T07:27:05;27.75;;;12.07;;
73850;SDS011;62190;51.548;5.688;2024-03-08T07:29:28;29.75;;;13.40;;
73850;SDS011;62190;51.548;5.688;2024-03-08T07:31:55;28.35;;;13.58;;
73850;SDS011;62190;51.548;5.688;2024-03-08T07:34:25;26.10;;;13.58;;
73850;SDS011;62190;51.548;5.688;2024-03-08T07:36:52;32.98;;;14.90;;
73850;SDS011;62190;51.548;5.688;2024-03-08T07:39:18;26.90;;;13.03;;
73850;SDS011;62190;51.548;5.688;2024-03-08T07:41:44;29.05;;;13.48;;
73850;SDS011;62190;51.548;5.688;2024-03-08T07:44:11;29.63;;;12.98;;
73850;SDS011;62190;51.548;5.688;2024-03-08T07:46:39;27.98;;;13.70;;
73850;SDS011;62190;51.548;5.688;2024-03-08T07:49:06;34.85;;;13.45;;
73850;SDS011;62190;51.548;5.688;2024-03-08T07:51:35;35.65;;;13.72;;
73850;SDS011;62190;51.548;5.688;2024-03-08T07:54:01;28.40;;;14.23;;
73850;SDS011;62190;51.548;5.688;2024-03-08T07:56:31;29.00;;;12.75;;
73850;SDS011;62190;51.548;5.688;2024-03-08T07:59:02;33.20;;;13.45;;
73850;SDS011;62190;51.548;5.688;2024-03-08T08:01:25;28.27;;;12.98;;
73850;SDS011;62190;51.548;5.688;2024-03-08T08:03:51;31.73;;;13.32;;
73850;SDS011;62190;51.548;5.688;2024-03-08T08:06:22;31.23;;;14.00;;
73850;SDS011;62190;51.548;5.688;2024-03-08T08:08:49;26.57;;;13.58;;
73850;SDS011;62190;51.548;5.688;2024-03-08T08:11:15;31.07;;;13.08;;
73850;SDS011;62190;51.548;5.688;2024-03-08T08:13:41;33.58;;;12.88;;
73850;SDS011;62190;51.548;5.688;2024-03-08T08:16:09;31.85;;;14.68;;
73850;SDS011;62190;51.548;5.688;2024-03-08T08:18:36;33.00;;;13.98;;
73850;SDS011;62190;51.548;5.688;2024-03-08T08:21:02;31.48;;;13.13;;
73850;SDS011;62190;51.548;5.688;2024-03-08T08:23:30;34.83;;;14.75;;
73850;SDS011;62190;51.548;5.688;2024-03-08T08:25:57;29.70;;;13.35;;
73850;SDS011;62190;51.548;5.688;2024-03-08T08:28:23;26.37;;;12.05;;
73850;SDS011;62190;51.548;5.688;2024-03-08T08:30:50;25.90;;;13.20;;
73850;SDS011;62190;51.548;5.688;2024-03-08T08:33:19;26.45;;;12.95;;
73850;SDS011;62190;51.548;5.688;2024-03-08T08:35:50;25.27;;;11.85;;
73850;SDS011;62190;51.548;5.688;2024-03-08T08:38:18;26.23;;;11.55;;
73850;SDS011;62190;51.548;5.688;2024-03-08T08:40:45;25.62;;;11.95;;
73850;SDS011;62190;51.548;5.688;2024-03-08T08:43:13;24.67;;;12.45;;
73850;SDS011;62190;51.548;5.688;2024-03-08T08:45:41;23.10;;;11.03;;
73850;SDS011;62190;51.548;5.688;2024-03-08T08:48:08;30.82;;;13.88;;
73850;SDS011;62190;51.548;5.688;2024-03-08T08:50:35;29.40;;;12.43;;
73850;SDS011;62190;51.548;5.688;2024-03-08T08:53:06;28.05;;;13.60;;
73850;SDS011;62190;51.548;5.688;2024-03-08T08:55:31;25.60;;;12.93;;
73850;SDS011;62190;51.548;5.688;2024-03-08T08:58:00;28.17;;;12.30;;
73850;SDS011;62190;51.548;5.688;2024-03-08T09:00:31;30.70;;;12.90;;
73850;SDS011;62190;51.548;5.688;2024-03-08T09:02:56;21.12;;;12.05;;
73850;SDS011;62190;51.548;5.688;2024-03-08T09:05:23;27.42;;;10.72;;
73850;SDS011;62190;51.548;5.688;2024-03-08T09:07:50;19.73;;;10.40;;
73850;SDS011;62190;51.548;5.688;2024-03-08T09:10:16;22.07;;;11.00;;
73850;SDS011;62190;51.548;5.688;2024-03-08T09:12:44;27.13;;;11.93;;
73850;SDS011;62190;51.548;5.688;2024-03-08T09:15:10;21.07;;;10.53;;
73850;SDS011;62190;51.548;5.688;2024-03-08T09:17:37;24.60;;;12.28;;
73850;SDS011;62190;51.548;5.688;2024-03-08T09:20:07;26.85;;;11.28;;
73850;SDS011;62190;51.548;5.688;2024-03-08T09:22:34;24.67;;;11.57;;
73850;SDS011;62190;51.548;5.688;2024-03-08T09:25:01;27.07;;;11.05;;
73850;SDS011;62190;51.548;5.688;2024-03-08T09:27:29;23.95;;;10.88;;
73850;SDS011;62190;51.548;5.688;2024-03-08T09:29:57;24.60;;;10.75;;
73850;SDS011;62190;51.548;5.688;2024-03-08T09:32:23;22.62;;;11.78;;
73850;SDS011;62190;51.548;5.688;2024-03-08T09:34:50;19.90;;;11.03;;
73850;SDS011;62190;51.548;5.688;2024-03-08T09:37:16;26.00;;;11.88;;
73850;SDS011;62190;51.548;5.688;2024-03-08T09:39:44;22.52;;;9.98;;
73850;SDS011;62190;51.548;5.688;2024-03-08T09:42:12;24.15;;;10.72;;
73850;SDS011;62190;51.548;5.688;2024-03-08T09:44:49;20.15;;;10.68;;
73850;SDS011;62190;51.548;5.688;2024-03-08T09:47:08;19.60;;;9.90;;
73850;SDS011;62190;51.548;5.688;2024-03-08T09:49:36;20.40;;;10.10;;
73850;SDS011;62190;51.548;5.688;2024-03-08T09:52:04;21.62;;;9.58;;
73850;SDS011;62190;51.548;5.688;2024-03-08T09:54:32;20.23;;;10.43;;
73850;SDS011;62190;51.548;5.688;2024-03-08T09:56:59;19.35;;;9.93;;
73850;SDS011;62190;51.548;5.688;2024-03-08T09:59:27;22.67;;;11.53;;
73850;SDS011;62190;51.548;5.688;2024-03-08T10:01:55;18.10;;;10.08;;
73850;SDS011;62190;51.548;5.688;2024-03-08T10:04:22;18.70;;;9.75;;
73850;SDS011;62190;51.548;5.688;2024-03-08T10:06:48;21.07;;;10.15;;
73850;SDS011;62190;51.548;5.688;2024-03-08T10:09:15;27.58;;;11.38;;
73850;SDS011;62190;51.548;5.688;2024-03-08T10:11:42;24.37;;;10.82;;
73850;SDS011;62190;51.548;5.688;2024-03-08T10:14:09;21.15;;;10.48;;
73850;SDS011;62190;51.548;5.688;2024-03-08T10:16:36;19.32;;;8.65;;
73850;SDS011;62190;51.548;5.688;2024-03-08T10:19:02;19.77;;;9.28;;
73850;SDS011;62190;51.548;5.688;2024-03-08T10:21:31;21.62;;;9.53;;
73850;SDS011;62190;51.548;5.688;2024-03-08T10:23:58;18.17;;;9.03;;
73850;SDS011;62190;51.548;5.688;2024-03-08T10:26:25;21.40;;;9.90;;
73850;SDS011;62190;51.548;5.688;2024-03-08T10:28:51;24.50;;;10.08;;
73850;SDS011;62190;51.548;5.688;2024-03-08T10:31:22;19.98;;;10.25;;
73850;SDS011;62190;51.548;5.688;2024-03-08T10:33:49;28.05;;;10.60;;
73850;SDS011;62190;51.548;5.688;2024-03-08T10:36:15;26.95;;;10.85;;
73850;SDS011;62190;51.548;5.688;2024-03-08T10:38:42;19.20;;;9.10;;
73850;SDS011;62190;51.548;5.688;2024-03-08T10:41:10;20.65;;;9.23;;
73850;SDS011;62190;51.548;5.688;2024-03-08T10:43:52;19.10;;;9.45;;
73850;SDS011;62190;51.548;5.688;2024-03-08T10:46:20;17.90;;;9.88;;
73850;SDS011;62190;51.548;5.688;2024-03-08T10:48:44;20.95;;;10.93;;
73850;SDS011;62190;51.548;5.688;2024-03-08T10:51:11;20.52;;;10.05;;
73850;SDS011;62190;51.548;5.688;2024-03-08T10:53:38;17.60;;;8.10;;
73850;SDS011;62190;51.548;5.688;2024-03-08T10:56:07;24.63;;;10.00;;
73850;SDS011;62190;51.548;5.688;2024-03-08T10:58:35;16.80;;;9.38;;
73850;SDS011;62190;51.548;5.688;2024-03-08T11:01:02;21.95;;;9.45;;
73850;SDS011;62190;51.548;5.688;2024-03-08T11:06:14;22.85;;;10.75;;
73850;SDS011;62190;51.548;5.688;2024-03-08T11:08:41;20.43;;;8.50;;
73850;SDS011;62190;51.548;5.688;2024-03-08T11:13:57;20.32;;;9.90;;
73850;SDS011;62190;51.548;5.688;2024-03-08T11:21:34;14.18;;;8.33;;
73850;SDS011;62190;51.548;5.688;2024-03-08T11:24:09;16.45;;;8.23;;
73850;SDS011;62190;51.548;5.688;2024-03-08T11:26:40;16.50;;;8.18;;
73850;SDS011;62190;51.548;5.688;2024-03-08T11:31:50;15.13;;;5.87;;
73850;SDS011;62190;51.548;5.688;2024-03-08T11:34:17;12.75;;;6.00;;
73850;SDS011;62190;51.548;5.688;2024-03-08T11:36:51;14.70;;;6.12;;
73850;SDS011;62190;51.548;5.688;2024-03-08T11:39:16;10.13;;;5.08;;
73850;SDS011;62190;51.548;5.688;2024-03-08T11:41:43;12.70;;;6.08;;
73850;SDS011;62190;51.548;5.688;2024-03-08T11:44:12;12.88;;;6.47;;
73850;SDS011;62190;51.548;5.688;2024-03-08T11:46:42;8.68;;;4.92;;
73850;SDS011;62190;51.548;5.688;2024-03-08T11:49:10;10.68;;;5.47;;
73850;SDS011;62190;51.548;5.688;2024-03-08T11:51:40;9.75;;;4.97;;
73850;SDS011;62190;51.548;5.688;2024-03-08T11:54:10;10.20;;;4.87;;
73850;SDS011;62190;51.548;5.688;2024-03-08T11:56:35;9.38;;;5.20;;
73850;SDS011;62190;51.548;5.688;2024-03-08T11:59:03;9.73;;;5.37;;
73850;SDS011;62190;51.548;5.688;2024-03-08T12:01:30;12.35;;;5.42;;
73850;SDS011;62190;51.548;5.688;2024-03-08T12:03:57;11.30;;;6.10;;
73850;SDS011;62190;51.548;5.688;2024-03-08T12:06:29;13.75;;;6.37;;
73850;SDS011;62190;51.548;5.688;2024-03-08T12:08:56;18.25;;;7.40;;
73850;SDS011;62190;51.548;5.688;2024-03-08T12:11:23;10.85;;;6.22;;
73850;SDS011;62190;51.548;5.688;2024-03-08T12:14:06;12.33;;;6.05;;
73850;SDS011;62190;51.548;5.688;2024-03-08T12:16:29;14.38;;;6.78;;
73850;SDS011;62190;51.548;5.688;2024-03-08T12:18:56;11.33;;;5.85;;
73850;SDS011;62190;51.548;5.688;2024-03-08T12:21:25;11.25;;;5.47;;
73850;SDS011;62190;51.548;5.688;2024-03-08T12:24:03;15.30;;;8.08;;
73850;SDS011;62190;51.548;5.688;2024-03-08T12:26:30;11.60;;;5.92;;
73850;SDS011;62190;51.548;5.688;2024-03-08T12:31:50;10.55;;;5.75;;
73850;SDS011;62190;51.548;5.688;2024-03-08T12:34:16;12.75;;;5.08;;
73850;SDS011;62190;51.548;5.688;2024-03-08T12:36:51;13.25;;;5.67;;
73850;SDS011;62190;51.548;5.688;2024-03-08T12:39:23;11.80;;;5.08;;
73850;SDS011;62190;51.548;5.688;2024-03-08T12:41:51;9.65;;;5.05;;
73850;SDS011;62190;51.548;5.688;2024-03-08T12:44:21;8.78;;;5.08;;
73850;SDS011;62190;51.548;5.688;2024-03-08T12:46:52;9.33;;;4.45;;
73850;SDS011;62190;51.548;5.688;2024-03-08T12:49:16;9.05;;;4.83;;
73850;SDS011;62190;51.548;5.688;2024-03-08T12:51:55;10.70;;;5.72;;
73850;SDS011;62190;51.548;5.688;2024-03-08T12:54:21;9.00;;;5.15;;
73850;SDS011;62190;51.548;5.688;2024-03-08T12:56:48;11.08;;;5.83;;
73850;SDS011;62190;51.548;5.688;2024-03-08T12:59:17;5.87;;;4.25;;
73850;SDS011;62190;51.548;5.688;2024-03-08T13:02:16;13.13;;;5.12;;
73850;SDS011;62190;51.548;5.688;2024-03-08T13:04:18;8.90;;;4.67;;
73850;SDS011;62190;51.548;5.688;2024-03-08T13:06:46;10.82;;;4.85;;
73850;SDS011;62190;51.548;5.688;2024-03-08T13:09:14;7.72;;;4.50;;
73850;SDS011;62190;51.548;5.688;2024-03-08T13:11:41;7.83;;;4.87;;
73850;SDS011;62190;51.548;5.688;2024-03-08T13:14:11;9.13;;;4.62;;
73850;SDS011;62190;51.548;5.688;2024-03-08T13:16:38;10.98;;;5.58;;
73850;SDS011;62190;51.548;5.688;2024-03-08T13:19:05;8.33;;;4.78;;
73850;SDS011;62190;51.548;5.688;2024-03-08T13:21:35;8.70;;;5.03;;
73850;SDS011;62190;51.548;5.688;2024-03-08T13:24:02;9.63;;;4.80;;
73850;SDS011;62190;51.548;5.688;2024-03-08T13:29:01;10.95;;;4.72;;
73850;SDS011;62190;51.548;5.688;2024-03-08T13:31:27;8.55;;;4.85;;
73850;SDS011;62190;51.548;5.688;2024-03-08T13:33:54;7.53;;;4.10;;
73850;SDS011;62190;51.548;5.688;2024-03-08T13:36:28;9.75;;;5.00;;
73850;SDS011;62190;51.548;5.688;2024-03-08T13:39:03;8.35;;;5.00;;
73850;SDS011;62190;51.548;5.688;2024-03-08T13:41:28;9.68;;;4.62;;
73850;SDS011;62190;51.548;5.688;2024-03-08T13:43:55;7.80;;;4.00;;
73850;SDS011;62190;51.548;5.688;2024-03-08T13:46:21;10.10;;;4.83;;
73850;SDS011;62190;51.548;5.688;2024-03-08T13:48:52;7.60;;;4.05;;
73850;SDS011;62190;51.548;5.688;2024-03-08T13:51:22;7.05;;;3.52;;
73850;SDS011;62190;51.548;5.688;2024-03-08T13:53:50;8.23;;;4.78;;
73850;SDS011;62190;51.548;5.688;2024-03-08T13:56:18;8.43;;;4.80;;
73850;SDS011;62190;51.548;5.688;2024-03-08T13:58:48;8.73;;;4.80;;
73850;SDS011;62190;51.548;5.688;2024-03-08T14:01:13;6.08;;;3.72;;
73850;SDS011;62190;51.548;5.688;2024-03-08T14:03:40;7.37;;;4.28;;
73850;SDS011;62190;51.548;5.688;2024-03-08T15:58:27;8.93;;;4.35;;
73850;SDS011;62190;51.548;5.688;2024-03-08T16:00:47;8.98;;;4.80;;
73850;SDS011;62190;51.548;5.688;2024-03-08T16:03:15;6.55;;;3.90;;
73850;SDS011;62190;51.548;5.688;2024-03-08T16:08:35;9.05;;;4.78;;
73850;SDS011;62190;51.548;5.688;2024-03-08T16:11:06;7.17;;;4.10;;
73850;SDS011;62190;51.548;5.688;2024-03-08T16:13:34;8.38;;;4.20;;
73850;SDS011;62190;51.548;5.688;2024-03-08T16:16:03;10.50;;;5.08;;
73850;SDS011;62190;51.548;5.688;2024-03-08T16:18:30;8.63;;;4.58;;
73850;SDS011;62190;51.548;5.688;2024-03-08T16:21:06;11.33;;;6.15;;
73850;SDS011;62190;51.548;5.688;2024-03-08T16:23:46;10.25;;;6.53;;
73850;SDS011;62190;51.548;5.688;2024-03-08T16:26:12;11.65;;;6.35;;
73850;SDS011;62190;51.548;5.688;2024-03-08T16:28:44;16.00;;;6.35;;
73850;SDS011;62190;51.548;5.688;2024-03-08T16:31:11;10.93;;;5.78;;
73850;SDS011;62190;51.548;5.688;2024-03-08T16:33:40;13.28;;;5.95;;
73850;SDS011;62190;51.548;5.688;2024-03-08T16:36:09;11.25;;;6.22;;
73850;SDS011;62190;51.548;5.688;2024-03-08T16:38:38;11.38;;;6.12;;
73850;SDS011;62190;51.548;5.688;2024-03-08T16:41:09;13.62;;;6.83;;
73850;SDS011;62190;51.548;5.688;2024-03-08T16:43:38;9.78;;;6.83;;
73850;SDS011;62190;51.548;5.688;2024-03-08T16:46:06;14.23;;;6.83;;
73850;SDS011;62190;51.548;5.688;2024-03-08T16:48:34;16.30;;;7.30;;